Time;durP1;ratioP1;P1;durP2;ratioP2;P2;SDS_P1;SDS_P2;PMS_P1;PMS_P2;Temp;Humidity;BMP_temperature;BMP_pressure;BME280_temperature;BME280_humidity;BME280_pressure;Samples;Min_cycle;Max_cycle;Signal;HPM_P1;HPM_P2
2022/12/21 00:01:25;;;;;;;28.60;11.10;;;9.20;91.70;;;;;;5069177;28;20160;-71
2022/12/21 00:03:56;;;;;;;31.47;10.87;;;9.20;91.70;;;;;;5052548;28;20049;-70
2022/12/21 00:06:26;;;;;;;29.65;10.77;;;9.20;91.70;;;;;;5053109;28;20336;-70
2022/12/21 00:08:55;;;;;;;27.42;10.95;;;9.20;91.60;;;;;;5070573;28;20064;-70
2022/12/21 00:11:23;;;;;;;30.50;11.50;;;9.20;91.50;;;;;;5071115;28;20128;-70
2022/12/21 00:13:52;;;;;;;24.80;9.02;;;9.20;91.50;;;;;;5052251;28;20076;-70
2022/12/21 00:16:21;;;;;;;27.27;10.43;;;9.20;91.40;;;;;;5052524;28;20053;-70
2022/12/21 00:18:50;;;;;;;26.42;9.80;;;9.20;91.40;;;;;;5049384;28;20364;-70
2022/12/21 00:21:20;;;;;;;30.67;11.82;;;9.20;91.40;;;;;;5071179;28;20052;-70
2022/12/21 00:23:49;;;;;;;27.55;9.98;;;9.10;91.40;;;;;;5070848;28;20140;-70
2022/12/21 00:26:19;;;;;;;30.25;10.55;;;9.00;91.40;;;;;;5071236;28;20128;-70
2022/12/21 00:28:47;;;;;;;30.03;11.60;;;9.00;91.50;;;;;;5052668;28;20505;-70
2022/12/21 00:31:17;;;;;;;27.17;9.82;;;9.00;91.40;;;;;;5035506;28;20351;-70
2022/12/21 00:33:48;;;;;;;27.90;10.88;;;9.00;91.40;;;;;;5051940;28;20049;-70
2022/12/21 00:36:19;;;;;;;32.90;11.48;;;9.00;91.40;;;;;;5035056;28;20049;-70
2022/12/21 00:38:47;;;;;;;30.25;11.82;;;9.00;91.40;;;;;;5051865;28;20136;-69
2022/12/21 00:41:16;;;;;;;31.17;11.33;;;9.00;91.40;;;;;;5052332;28;20051;-69
2022/12/21 00:43:44;;;;;;;32.60;11.57;;;9.00;91.40;;;;;;5051796;28;20370;-70
2022/12/21 00:46:16;;;;;;;29.90;10.05;;;9.00;91.40;;;;;;5036023;28;20135;-70
2022/12/21 00:48:44;;;;;;;26.10;10.05;;;9.00;91.20;;;;;;5035346;28;20091;-70
2022/12/21 00:51:13;;;;;;;25.63;8.20;;;9.00;91.20;;;;;;5035312;28;20677;-69
2022/12/21 00:53:41;;;;;;;25.00;7.97;;;9.00;91.20;;;;;;5051220;28;20051;-70
2022/12/21 00:56:09;;;;;;;24.17;7.22;;;9.00;91.20;;;;;;5051434;28;20680;-70
2022/12/21 00:58:38;;;;;;;34.38;10.55;;;8.90;91.20;;;;;;5035937;28;20602;-70
2022/12/21 01:01:08;;;;;;;25.77;8.65;;;8.90;91.20;;;;;;5035399;28;20068;-69
2022/12/21 01:03:35;;;;;;;25.88;8.50;;;8.80;91.20;;;;;;5051487;28;20132;-70
2022/12/21 01:06:02;;;;;;;31.63;8.33;;;8.80;91.50;;;;;;5016201;28;20045;-69
2022/12/21 01:08:30;;;;;;;31.10;9.98;;;8.80;91.50;;;;;;5031634;28;20285;-70
2022/12/21 01:11:00;;;;;;;22.00;6.75;;;8.70;91.40;;;;;;5049600;28;20051;-69
2022/12/21 01:13:27;;;;;;;18.42;5.47;;;8.60;91.60;;;;;;5068378;28;20045;-70
2022/12/21 01:15:56;;;;;;;16.17;5.00;;;8.60;91.80;;;;;;5035158;28;20041;-70
2022/12/21 01:18:26;;;;;;;22.90;7.17;;;8.60;91.70;;;;;;5035331;28;20045;-69
2022/12/21 01:20:55;;;;;;;26.33;7.03;;;8.50;92.00;;;;;;5034487;28;20319;-69
2022/12/21 01:23:23;;;;;;;33.15;8.70;;;8.50;91.90;;;;;;5031678;28;20049;-69
2022/12/21 01:25:51;;;;;;;34.92;8.30;;;8.40;92.00;;;;;;5051217;28;20107;-70
2022/12/21 01:28:19;;;;;;;52.38;7.80;;;8.40;92.10;;;;;;5034495;28;20040;-69
2022/12/21 01:30:47;;;;;;;33.53;8.10;;;8.40;92.10;;;;;;5047866;28;20852;-70
2022/12/21 01:33:15;;;;;;;25.95;8.05;;;8.30;92.20;;;;;;5050202;28;20746;-69
2022/12/21 01:35:45;;;;;;;28.73;9.32;;;8.30;92.40;;;;;;5068404;28;20192;-69
2022/12/21 01:38:13;;;;;;;26.48;7.45;;;8.30;92.30;;;;;;5034075;28;20546;-69
2022/12/21 01:40:41;;;;;;;25.20;8.30;;;8.30;92.30;;;;;;5048738;28;20073;-69
2022/12/21 01:43:41;;;;;;;22.77;8.03;;;8.30;92.30;;;;;;5044649;28;20134;-70
2022/12/21 01:46:11;;;;;;;22.65;7.13;;;8.30;92.30;;;;;;5069469;28;20276;-69
2022/12/21 01:48:44;;;;;;;27.30;8.25;;;8.30;92.30;;;;;;5050063;28;20128;-70
2022/12/21 01:51:13;;;;;;;29.42;8.13;;;8.30;92.30;;;;;;5034897;28;20052;-70
2022/12/21 01:53:44;;;;;;;25.50;8.90;;;8.30;92.30;;;;;;5034748;28;20060;-70
2022/12/21 01:56:14;;;;;;;21.00;8.13;;;8.30;92.30;;;;;;5051373;28;20065;-70
2022/12/21 01:58:43;;;;;;;20.35;7.47;;;8.30;92.40;;;;;;5033865;28;20394;-70
2022/12/21 02:01:11;;;;;;;27.13;8.52;;;8.30;92.40;;;;;;5034499;28;20136;-69
2022/12/21 02:03:42;;;;;;;30.85;8.65;;;8.20;92.40;;;;;;5034360;28;20055;-70
2022/12/21 02:06:13;;;;;;;31.88;8.85;;;8.20;92.40;;;;;;5049514;28;20507;-69
2022/12/21 02:08:41;;;;;;;27.43;7.27;;;8.20;92.50;;;;;;5023322;28;20045;-69
2022/12/21 02:11:09;;;;;;;29.52;7.55;;;8.30;92.50;;;;;;5034329;28;20322;-70
2022/12/21 02:13:36;;;;;;;24.08;6.22;;;8.30;92.50;;;;;;5034620;28;20055;-70
2022/12/21 02:16:23;;;;;;;21.00;6.47;;;8.30;92.40;;;;;;5069036;28;20053;-69
2022/12/21 02:19:37;;;;;;;22.15;7.63;;;8.30;92.30;;;;;;5049988;28;20510;-69
2022/12/21 02:22:08;;;;;;;24.10;7.10;;;8.30;92.30;;;;;;5018160;28;20065;-70
2022/12/21 02:25:02;;;;;;;22.25;7.32;;;8.20;92.30;;;;;;5034080;28;20739;-70
2022/12/21 02:28:10;;;;;;;21.45;6.85;;;8.30;92.30;;;;;;5050533;28;20514;-69
2022/12/21 02:30:59;;;;;;;23.85;6.80;;;8.30;92.30;;;;;;5030644;28;20049;-70
2022/12/21 02:33:44;;;;;;;39.45;7.63;;;8.30;92.30;;;;;;5033580;28;20045;-70
2022/12/21 02:36:25;;;;;;;28.43;8.27;;;8.30;92.20;;;;;;5033848;28;20107;-70
2022/12/21 02:39:02;;;;;;;31.67;7.93;;;8.30;92.20;;;;;;5034165;28;20244;-70
2022/12/21 02:41:41;;;;;;;42.20;8.80;;;8.30;92.20;;;;;;5067850;28;20168;-70
2022/12/21 02:44:17;;;;;;;34.30;8.77;;;8.30;92.20;;;;;;5033977;28;20516;-70
2022/12/21 02:46:59;;;;;;;30.23;8.07;;;8.30;92.20;;;;;;5050659;28;20084;-70
2022/12/21 02:49:33;;;;;;;35.20;8.73;;;8.30;92.20;;;;;;5049965;28;20107;-70
2022/12/21 02:52:05;;;;;;;45.22;9.82;;;8.30;92.20;;;;;;5050625;28;20353;-70
2022/12/21 02:54:34;;;;;;;32.45;9.32;;;8.30;92.10;;;;;;5050030;28;20049;-70
2022/12/21 02:57:01;;;;;;;56.92;10.60;;;8.30;92.00;;;;;;5048133;28;20063;-69
2022/12/21 02:59:31;;;;;;;28.33;9.20;;;8.30;92.00;;;;;;5036218;28;20051;-71
2022/12/21 03:02:33;;;;;;;51.67;9.43;;;8.30;92.00;;;;;;5068346;28;20049;-70
2022/12/21 03:05:19;;;;;;;58.72;10.07;;;8.30;91.90;;;;;;5033092;28;20822;-70
2022/12/21 03:08:05;;;;;;;40.58;9.13;;;8.30;92.00;;;;;;5050244;28;20052;-70
2022/12/21 03:10:45;;;;;;;39.05;8.65;;;8.30;91.90;;;;;;5033127;28;20053;-70
2022/12/21 03:13:23;;;;;;;26.90;8.65;;;8.30;91.90;;;;;;5033544;28;20136;-70
2022/12/21 03:16:00;;;;;;;28.27;8.67;;;8.30;91.90;;;;;;5031816;28;20526;-70
2022/12/21 03:18:34;;;;;;;33.47;9.75;;;8.20;91.90;;;;;;5036946;28;20312;-70
2022/12/21 03:21:05;;;;;;;36.17;8.85;;;8.20;91.90;;;;;;5045747;28;20049;-70
2022/12/21 03:23:36;;;;;;;27.40;8.65;;;8.20;91.80;;;;;;5050156;28;20052;-70
2022/12/21 03:26:08;;;;;;;25.30;8.50;;;8.20;91.80;;;;;;5034592;28;20054;-70
2022/12/21 03:28:39;;;;;;;34.13;8.83;;;8.20;91.80;;;;;;5047092;28;20514;-70
2022/12/21 03:31:12;;;;;;;47.70;10.60;;;8.20;91.80;;;;;;5046945;28;20848;-70
2022/12/21 03:33:49;;;;;;;42.08;8.93;;;8.20;91.80;;;;;;5052230;28;20581;-69
2022/12/21 03:36:21;;;;;;;36.60;9.60;;;8.20;91.80;;;;;;5071534;28;20057;-70
2022/12/21 03:38:52;;;;;;;23.98;9.20;;;8.20;91.80;;;;;;5053163;28;20081;-70
2022/12/21 03:41:30;;;;;;;32.73;10.20;;;8.20;91.80;;;;;;5049522;28;20184;-70
2022/12/21 03:44:02;;;;;;;33.65;9.80;;;8.20;91.80;;;;;;5046565;28;20712;-69
2022/12/21 03:46:33;;;;;;;32.15;8.88;;;8.20;91.80;;;;;;5071328;28;20049;-70
2022/12/21 03:49:03;;;;;;;27.85;8.52;;;8.20;91.80;;;;;;5071516;28;20053;-70
2022/12/21 03:51:39;;;;;;;45.20;8.80;;;8.20;91.90;;;;;;5052158;28;20503;-70
2022/12/21 03:54:14;;;;;;;26.73;7.20;;;8.20;91.80;;;;;;5071327;28;20062;-70
2022/12/21 03:56:42;;;;;;;38.47;7.95;;;8.20;91.70;;;;;;5051342;28;20249;-70
2022/12/21 03:59:13;;;;;;;25.58;8.20;;;8.10;91.60;;;;;;5045190;28;20044;-70
2022/12/21 04:01:50;;;;;;;42.58;9.02;;;8.10;91.60;;;;;;5050262;28;20495;-70
2022/12/21 04:04:26;;;;;;;24.40;8.25;;;8.10;91.70;;;;;;5053068;28;20558;-70
2022/12/21 04:06:56;;;;;;;29.67;8.83;;;8.10;91.70;;;;;;5052742;28;20044;-70
2022/12/21 04:09:23;;;;;;;36.38;10.52;;;8.10;91.70;;;;;;5069671;28;20384;-70
2022/12/21 04:14:37;;;;;;;55.67;10.73;;;8.10;91.70;;;;;;5052687;28;20049;-69
2022/12/21 04:17:04;;;;;;;29.80;9.55;;;8.10;91.70;;;;;;5052281;28;20120;-70
2022/12/21 04:30:28;;;;;;;25.60;9.98;;;8.00;91.60;;;;;;5051704;28;20041;-70
2022/12/21 04:32:55;;;;;;;28.00;9.90;;;8.00;91.60;;;;;;5070647;28;20057;-69
2022/12/21 04:35:23;;;;;;;27.52;10.32;;;8.00;91.60;;;;;;5055474;28;20256;-70
2022/12/21 04:37:49;;;;;;;49.33;9.90;;;8.00;91.60;;;;;;5052318;28;20045;-70
2022/12/21 04:40:16;;;;;;;24.17;9.68;;;8.00;91.50;;;;;;5070752;28;20498;-70
2022/12/21 04:42:43;;;;;;;44.40;11.25;;;8.00;91.60;;;;;;5050459;28;20880;-70
2022/12/21 04:45:12;;;;;;;27.87;10.60;;;8.00;91.50;;;;;;5070678;28;20060;-70
2022/12/21 04:47:40;;;;;;;31.30;10.02;;;8.00;91.60;;;;;;5052274;28;20049;-70
2022/12/21 04:50:08;;;;;;;30.70;10.68;;;8.00;91.60;;;;;;5051834;28;20159;-70
2022/12/21 04:52:37;;;;;;;31.80;10.15;;;8.00;91.60;;;;;;5070281;28;20073;-70
2022/12/21 04:55:04;;;;;;;26.70;10.85;;;8.00;91.60;;;;;;5070280;28;20053;-70
2022/12/21 04:57:31;;;;;;;32.87;10.40;;;8.00;91.60;;;;;;5052091;28;20049;-70
2022/12/21 04:59:58;;;;;;;25.00;9.90;;;8.00;91.70;;;;;;5050369;28;20069;-70
2022/12/21 05:02:25;;;;;;;39.22;10.60;;;8.00;91.60;;;;;;5052277;28;20044;-70
2022/12/21 05:04:52;;;;;;;30.58;9.43;;;8.00;91.70;;;;;;5035569;28;20056;-70
2022/12/21 05:07:19;;;;;;;37.97;10.25;;;8.00;91.70;;;;;;5051454;28;20047;-69
2022/12/21 05:09:48;;;;;;;31.57;10.77;;;8.00;91.70;;;;;;5050622;28;20045;-70
2022/12/21 05:12:15;;;;;;;26.20;10.00;;;8.00;91.70;;;;;;5050074;28;20107;-70
2022/12/21 05:14:42;;;;;;;33.97;11.80;;;8.00;91.70;;;;;;5051286;28;20053;-70
2022/12/21 05:17:09;;;;;;;31.95;11.50;;;8.00;91.70;;;;;;5049442;28;20472;-70
2022/12/21 05:19:36;;;;;;;58.17;12.82;;;8.00;91.70;;;;;;5068310;28;20132;-70
2022/12/21 05:22:03;;;;;;;31.90;10.93;;;8.00;91.80;;;;;;5035660;28;20055;-70
2022/12/21 05:24:30;;;;;;;62.15;11.60;;;8.00;91.70;;;;;;5053068;28;20152;-69
2022/12/21 05:26:59;;;;;;;35.13;10.20;;;8.00;91.80;;;;;;5045867;28;20612;-70
2022/12/21 05:29:26;;;;;;;30.88;10.38;;;8.00;91.70;;;;;;5063911;28;20139;-70
2022/12/21 05:31:53;;;;;;;55.40;10.93;;;8.00;91.70;;;;;;5033967;28;20055;-70
2022/12/21 05:34:20;;;;;;;35.07;10.20;;;8.00;91.70;;;;;;5067528;28;20056;-70
2022/12/21 05:36:47;;;;;;;63.45;11.88;;;8.00;91.60;;;;;;5068310;28;20140;-70
2022/12/21 05:39:14;;;;;;;30.50;10.38;;;8.00;91.60;;;;;;5050232;28;20041;-70
2022/12/21 05:41:41;;;;;;;46.45;11.02;;;8.00;91.70;;;;;;5068883;28;20144;-70
2022/12/21 05:44:10;;;;;;;34.60;9.82;;;8.00;91.60;;;;;;5050749;28;20051;-70
2022/12/21 05:46:38;;;;;;;30.00;9.60;;;8.00;91.60;;;;;;5068338;28;20065;-70
2022/12/21 05:49:04;;;;;;;44.63;10.30;;;8.00;91.60;;;;;;5050152;28;20125;-69
2022/12/21 05:51:32;;;;;;;36.28;10.70;;;8.00;91.60;;;;;;5050014;28;20056;-70
2022/12/21 05:53:59;;;;;;;32.60;11.10;;;8.00;91.70;;;;;;5066637;28;20495;-70
2022/12/21 05:56:26;;;;;;;33.58;10.02;;;8.00;91.70;;;;;;5050587;28;20160;-69
2022/12/21 05:58:54;;;;;;;29.77;11.53;;;8.00;91.70;;;;;;5066211;28;20057;-70
2022/12/21 06:01:23;;;;;;;26.35;10.65;;;8.00;91.70;;;;;;5046268;28;20060;-70
2022/12/21 06:03:50;;;;;;;31.58;11.23;;;8.00;91.80;;;;;;5066839;28;20049;-69
2022/12/21 06:06:18;;;;;;;34.53;11.70;;;7.90;91.80;;;;;;5067353;28;20048;-69
2022/12/21 06:08:45;;;;;;;32.00;10.93;;;7.90;91.90;;;;;;5067723;28;20045;-70
2022/12/21 06:11:15;;;;;;;34.37;12.17;;;8.00;91.90;;;;;;5047394;28;20103;-70
2022/12/21 06:13:42;;;;;;;41.00;12.35;;;8.00;91.80;;;;;;5049561;28;20045;-70
2022/12/21 06:16:11;;;;;;;36.80;13.15;;;8.00;91.90;;;;;;5049657;28;20060;-70
2022/12/21 06:18:41;;;;;;;39.80;12.15;;;8.00;92.00;;;;;;5048958;28;20049;-69
2022/12/21 06:21:10;;;;;;;38.33;12.23;;;8.00;92.00;;;;;;5038767;28;20053;-70
2022/12/21 06:23:38;;;;;;;35.33;12.27;;;8.00;92.00;;;;;;5029425;28;20050;-70
2022/12/21 06:26:06;;;;;;;37.85;11.88;;;8.00;92.10;;;;;;5058340;28;20908;-70
2022/12/21 06:28:33;;;;;;;39.15;11.80;;;8.00;92.10;;;;;;5067275;28;20055;-70
2022/12/21 06:31:03;;;;;;;40.90;12.15;;;8.10;92.10;;;;;;5048520;28;20037;-70
2022/12/21 06:33:31;;;;;;;42.83;12.27;;;8.00;92.10;;;;;;5058566;28;20556;-70
2022/12/21 06:35:59;;;;;;;33.67;11.93;;;8.10;92.10;;;;;;5060332;28;20060;-70
2022/12/21 06:38:27;;;;;;;29.00;11.25;;;8.10;92.10;;;;;;5067602;28;20049;-70
2022/12/21 06:40:55;;;;;;;33.78;12.27;;;8.00;92.10;;;;;;5067803;28;20065;-70
2022/12/21 06:43:22;;;;;;;34.70;12.32;;;8.00;92.10;;;;;;5052437;28;20048;-70
2022/12/21 06:45:57;;;;;;;35.58;12.27;;;8.00;92.10;;;;;;5066921;28;20145;-70
2022/12/21 06:48:25;;;;;;;30.80;11.03;;;8.10;92.10;;;;;;5048734;28;20052;-70
2022/12/21 06:50:53;;;;;;;36.92;12.32;;;8.10;92.10;;;;;;5045995;28;20056;-70
2022/12/21 06:53:23;;;;;;;35.42;12.80;;;8.10;92.10;;;;;;5044926;28;20574;-70
2022/12/21 06:55:50;;;;;;;32.17;11.90;;;8.10;92.10;;;;;;5058022;28;20577;-70
2022/12/21 06:58:17;;;;;;;33.42;11.50;;;8.10;92.10;;;;;;5076587;28;20054;-70
2022/12/21 07:00:44;;;;;;;33.17;10.83;;;8.10;92.10;;;;;;5047487;28;20055;-70
2022/12/21 07:03:12;;;;;;;31.40;11.85;;;8.10;92.10;;;;;;5036244;28;20047;-70
2022/12/21 07:05:39;;;;;;;34.50;11.95;;;8.10;92.10;;;;;;5066619;28;20049;-70
2022/12/21 07:08:06;;;;;;;35.05;12.05;;;8.10;92.10;;;;;;5056686;28;20077;-70
2022/12/21 07:10:43;;;;;;;36.03;12.02;;;8.10;92.10;;;;;;5054480;28;20053;-70
2022/12/21 07:13:11;;;;;;;32.57;11.83;;;8.10;92.10;;;;;;5083493;22;20050;-70
2022/12/21 07:15:38;;;;;;;35.17;12.07;;;8.10;92.10;;;;;;5073505;28;20057;-70
2022/12/21 07:18:05;;;;;;;34.58;12.57;;;8.10;92.20;;;;;;5046210;28;20053;-70
2022/12/21 07:20:33;;;;;;;34.92;12.13;;;8.10;92.10;;;;;;5064542;28;20203;-70
2022/12/21 07:23:00;;;;;;;39.80;12.63;;;8.10;92.10;;;;;;5043763;28;20041;-70
2022/12/21 07:25:28;;;;;;;32.23;12.43;;;8.10;92.10;;;;;;5084089;22;20042;-71
2022/12/21 07:27:58;;;;;;;35.78;11.68;;;8.10;92.10;;;;;;5041516;28;20046;-70
2022/12/21 07:30:26;;;;;;;35.03;11.95;;;8.10;92.10;;;;;;5044603;28;20053;-70
2022/12/21 07:32:54;;;;;;;33.67;11.95;;;8.00;92.00;;;;;;5046403;28;20806;-70
2022/12/21 07:35:22;;;;;;;37.03;13.52;;;8.00;92.10;;;;;;5054155;28;20053;-70
2022/12/21 07:37:51;;;;;;;41.03;13.03;;;8.00;92.10;;;;;;5031180;28;20060;-70
2022/12/21 07:40:20;;;;;;;39.25;12.15;;;8.00;92.10;;;;;;5036689;28;20058;-70
2022/12/21 07:42:48;;;;;;;42.40;12.60;;;8.00;92.20;;;;;;5040142;28;20133;-70
2022/12/21 07:45:26;;;;;;;46.90;17.35;;;8.00;92.10;;;;;;5054073;28;20458;-70
2022/12/21 07:47:56;;;;;;;73.65;23.40;;;8.00;92.10;;;;;;5046117;28;20058;-70
2022/12/21 07:50:23;;;;;;;60.10;21.70;;;8.00;92.20;;;;;;5059433;28;20053;-71
2022/12/21 07:52:49;;;;;;;46.20;15.40;;;8.00;92.20;;;;;;5048800;28;20128;-70
2022/12/21 07:55:17;;;;;;;47.35;15.57;;;8.00;92.10;;;;;;5032396;28;20053;-70
2022/12/21 07:57:44;;;;;;;39.65;15.60;;;8.00;92.20;;;;;;5054097;28;20061;-70
2022/12/21 08:00:12;;;;;;;40.42;15.13;;;8.00;92.10;;;;;;5057564;28;20048;-70
2022/12/21 08:02:43;;;;;;;44.77;15.67;;;8.00;92.10;;;;;;5059228;22;20159;-70
2022/12/21 08:05:10;;;;;;;54.85;18.75;;;8.00;92.20;;;;;;5025109;28;20070;-70
2022/12/21 08:07:37;;;;;;;42.22;15.82;;;8.00;92.20;;;;;;5042353;28;20978;-70
2022/12/21 08:10:05;;;;;;;45.60;16.13;;;8.00;92.20;;;;;;5029988;28;20049;-70
2022/12/21 08:12:32;;;;;;;48.75;15.95;;;8.00;92.20;;;;;;5028146;28;20458;-70
2022/12/21 08:15:00;;;;;;;47.73;16.37;;;8.00;92.20;;;;;;5043859;28;20446;-70
2022/12/21 08:17:27;;;;;;;41.75;15.27;;;8.00;92.20;;;;;;5047869;28;20930;-70
2022/12/21 08:19:56;;;;;;;41.85;14.52;;;8.00;92.30;;;;;;5044136;28;20525;-70
2022/12/21 08:22:23;;;;;;;44.47;14.07;;;8.00;92.30;;;;;;5046662;28;20136;-70
2022/12/21 08:24:50;;;;;;;46.70;16.15;;;8.00;92.30;;;;;;5026665;28;20081;-70
2022/12/21 08:27:18;;;;;;;43.93;15.13;;;8.00;92.30;;;;;;5041625;28;20054;-70
2022/12/21 08:29:45;;;;;;;46.67;16.13;;;8.00;92.30;;;;;;5038107;28;20081;-70
2022/12/21 08:32:12;;;;;;;52.53;17.45;;;8.00;92.20;;;;;;5049172;28;20076;-70
2022/12/21 08:34:39;;;;;;;48.28;17.13;;;8.00;92.40;;;;;;5048215;28;20128;-70
2022/12/21 08:37:07;;;;;;;43.33;15.73;;;8.00;92.40;;;;;;5019842;28;20068;-70
2022/12/21 08:39:34;;;;;;;56.03;18.90;;;8.00;92.30;;;;;;5027747;28;20053;-70
2022/12/21 08:42:03;;;;;;;51.95;16.50;;;8.00;92.40;;;;;;5023758;28;20898;-70
2022/12/21 08:44:30;;;;;;;53.90;18.23;;;8.00;92.30;;;;;;5027191;28;20409;-71
2022/12/21 08:46:57;;;;;;;49.97;17.38;;;8.00;92.30;;;;;;5022637;28;20136;-70
2022/12/21 08:49:24;;;;;;;51.13;17.38;;;8.00;92.30;;;;;;5029827;28;20151;-70
2022/12/21 08:51:51;;;;;;;48.13;17.03;;;8.10;92.30;;;;;;5046426;28;20129;-70
2022/12/21 08:54:19;;;;;;;46.92;15.82;;;8.10;92.30;;;;;;5044948;28;20053;-70
2022/12/21 08:56:46;;;;;;;50.38;18.10;;;8.00;92.20;;;;;;5024079;28;20150;-70
2022/12/21 08:59:14;;;;;;;42.97;16.02;;;8.00;92.30;;;;;;5027179;28;20053;-70
2022/12/21 09:01:40;;;;;;;42.13;15.70;;;8.00;92.30;;;;;;5044698;28;20140;-70
2022/12/21 09:04:07;;;;;;;46.10;15.57;;;8.00;92.30;;;;;;5047072;28;20064;-70
2022/12/21 09:06:35;;;;;;;46.45;16.33;;;8.00;92.30;;;;;;5042805;28;20140;-70
2022/12/21 09:09:02;;;;;;;40.22;14.80;;;8.00;92.30;;;;;;5024721;28;20141;-70
2022/12/21 09:11:30;;;;;;;43.92;14.88;;;8.00;92.30;;;;;;5035549;28;20062;-70
2022/12/21 09:13:58;;;;;;;45.75;16.63;;;8.10;92.40;;;;;;5023828;28;20049;-70
2022/12/21 09:16:25;;;;;;;45.80;16.47;;;8.10;92.30;;;;;;5029710;28;20060;-70
2022/12/21 09:18:53;;;;;;;44.42;15.07;;;8.10;92.30;;;;;;5044245;28;20054;-70
2022/12/21 09:21:22;;;;;;;41.58;14.15;;;8.10;92.20;;;;;;5040434;28;20142;-70
2022/12/21 09:23:51;;;;;;;48.72;16.33;;;8.00;92.20;;;;;;5033712;28;20048;-70
2022/12/21 09:26:18;;;;;;;47.22;15.48;;;8.00;92.20;;;;;;5041620;28;20169;-70
2022/12/21 09:28:47;;;;;;;47.70;16.40;;;8.00;92.20;;;;;;5025922;28;20052;-70
2022/12/21 09:31:16;;;;;;;47.40;16.45;;;8.00;92.10;;;;;;5040607;28;20056;-70
2022/12/21 09:33:44;;;;;;;43.30;15.02;;;8.00;92.10;;;;;;5044150;28;20073;-70
2022/12/21 09:36:12;;;;;;;56.55;19.17;;;8.00;92.00;;;;;;5042849;28;20116;-70
2022/12/21 09:38:40;;;;;;;51.38;18.17;;;8.00;92.10;;;;;;5043473;28;20049;-71
2022/12/21 09:41:32;;;;;;;45.60;16.10;;;8.00;92.10;;;;;;5025354;28;20065;-70
2022/12/21 09:44:23;;;;;;;52.22;17.38;;;8.00;92.20;;;;;;5026907;28;20128;-70
2022/12/21 09:46:53;;;;;;;46.17;16.38;;;8.00;92.30;;;;;;5023177;28;20077;-70
2022/12/21 09:49:51;;;;;;;50.60;16.95;;;8.00;92.20;;;;;;5030579;28;20046;-70
2022/12/21 09:52:24;;;;;;;48.47;16.20;;;8.00;92.20;;;;;;5048255;28;20064;-71
2022/12/21 09:54:57;;;;;;;44.73;14.93;;;8.00;92.20;;;;;;5028719;28;20062;-71
2022/12/21 09:57:29;;;;;;;47.05;16.45;;;8.00;92.20;;;;;;5021534;28;20133;-70
2022/12/21 09:59:57;;;;;;;48.30;17.35;;;8.00;92.30;;;;;;5005541;28;20172;-70
2022/12/21 10:02:36;;;;;;;39.38;14.50;;;7.90;92.40;;;;;;5041359;28;20140;-70
2022/12/21 10:05:16;;;;;;;44.35;16.10;;;8.00;92.30;;;;;;5040834;28;20058;-70
2022/12/21 10:08:21;;;;;;;44.03;15.53;;;7.90;92.50;;;;;;5010411;28;20502;-70
2022/12/21 10:10:56;;;;;;;44.42;15.52;;;8.00;92.40;;;;;;5027925;28;20053;-70
2022/12/21 10:13:37;;;;;;;43.95;14.35;;;8.00;92.40;;;;;;5023718;28;20121;-70
2022/12/21 10:16:19;;;;;;;43.85;14.73;;;8.00;92.30;;;;;;5020350;28;20041;-71
2022/12/21 10:18:56;;;;;;;44.55;15.38;;;8.00;92.50;;;;;;5032558;28;20140;-70
2022/12/21 10:21:32;;;;;;;36.47;12.43;;;8.00;92.50;;;;;;5024048;28;20236;-70
2022/12/21 10:24:03;;;;;;;48.90;15.75;;;8.00;92.50;;;;;;5035352;28;20165;-70
2022/12/21 10:26:34;;;;;;;38.17;13.35;;;8.00;92.60;;;;;;5037807;28;20069;-71
2022/12/21 10:29:07;;;;;;;41.63;13.30;;;8.00;92.50;;;;;;5029696;28;20816;-70
2022/12/21 10:31:40;;;;;;;42.40;14.23;;;8.00;92.40;;;;;;5027966;28;20072;-70
2022/12/21 10:34:16;;;;;;;40.87;12.63;;;8.00;92.50;;;;;;5025755;28;20685;-70
2022/12/21 10:36:45;;;;;;;42.05;13.77;;;8.00;92.50;;;;;;5043792;28;20057;-70
2022/12/21 10:39:15;;;;;;;39.33;14.38;;;8.00;92.60;;;;;;5043597;28;20156;-70
2022/12/21 10:41:47;;;;;;;40.60;13.63;;;8.00;92.50;;;;;;5027977;28;20112;-70
2022/12/21 10:44:15;;;;;;;34.00;13.07;;;8.10;92.50;;;;;;5029953;28;20470;-70
2022/12/21 10:46:43;;;;;;;36.33;13.07;;;8.10;92.50;;;;;;5032151;28;20605;-70
2022/12/21 10:49:19;;;;;;;38.55;13.32;;;8.10;92.50;;;;;;5023479;28;20057;-70
2022/12/21 10:51:46;;;;;;;40.33;13.18;;;8.10;92.50;;;;;;5042290;28;20061;-70
2022/12/21 10:54:13;;;;;;;41.30;13.85;;;8.20;92.60;;;;;;5039026;28;20143;-70
2022/12/21 10:56:45;;;;;;;40.10;14.20;;;8.20;92.50;;;;;;5025526;28;20061;-70
2022/12/21 10:59:19;;;;;;;36.87;12.27;;;8.20;92.60;;;;;;5042700;28;20050;-70
2022/12/21 11:01:48;;;;;;;37.15;12.68;;;8.20;92.50;;;;;;5047250;28;20050;-70
2022/12/21 11:04:17;;;;;;;42.00;13.63;;;8.30;92.60;;;;;;5037314;28;20053;-70
2022/12/21 11:06:57;;;;;;;41.78;14.13;;;8.30;92.50;;;;;;5050818;28;20140;-70
2022/12/21 11:09:38;;;;;;;40.55;14.25;;;8.30;92.50;;;;;;5032948;28;20128;-70
2022/12/21 11:12:19;;;;;;;39.63;12.97;;;8.40;92.30;;;;;;5029565;28;20046;-70
2022/12/21 11:14:47;;;;;;;39.15;13.75;;;8.40;92.20;;;;;;5031091;28;20082;-70
2022/12/21 11:17:22;;;;;;;39.08;13.65;;;8.40;92.20;;;;;;5025614;28;20212;-70
2022/12/21 11:19:52;;;;;;;40.40;14.60;;;8.50;92.10;;;;;;5026184;28;20050;-70
2022/12/21 11:22:27;;;;;;;38.72;13.70;;;8.50;92.00;;;;;;5050676;28;20064;-70
2022/12/21 11:24:56;;;;;;;39.73;13.83;;;8.60;91.70;;;;;;5041074;28;20579;-70
2022/12/21 11:27:26;;;;;;;43.40;13.35;;;8.60;91.60;;;;;;5047251;28;20057;-70
2022/12/21 11:29:56;;;;;;;36.90;13.50;;;8.60;91.40;;;;;;5032737;28;20071;-70
2022/12/21 11:32:25;;;;;;;39.10;13.48;;;8.60;91.40;;;;;;5032649;28;20522;-70
2022/12/21 11:34:54;;;;;;;40.88;14.32;;;8.70;91.30;;;;;;5050810;28;20845;-70
2022/12/21 11:37:24;;;;;;;37.30;12.70;;;8.80;91.10;;;;;;5047601;28;20075;-70
2022/12/21 11:39:51;;;;;;;42.97;14.32;;;8.80;90.80;;;;;;5039556;28;20148;-70
2022/12/21 11:42:20;;;;;;;44.58;15.98;;;8.80;90.60;;;;;;5031530;28;20085;-70
2022/12/21 11:44:47;;;;;;;40.33;15.27;;;8.90;90.50;;;;;;5041201;28;20045;-70
2022/12/21 11:47:35;;;;;;;39.58;14.38;;;8.90;90.30;;;;;;5031784;28;20053;-70
2022/12/21 11:50:23;;;;;;;39.03;13.00;;;8.90;90.00;;;;;;5022080;28;20160;-70
2022/12/21 11:53:14;;;;;;;38.67;13.10;;;9.00;89.80;;;;;;5024313;28;20046;-70
2022/12/21 11:55:59;;;;;;;36.33;12.52;;;9.00;89.80;;;;;;5025688;28;20157;-70
2022/12/21 11:58:42;;;;;;;37.67;12.88;;;9.00;89.80;;;;;;5044235;28;20050;-70
2022/12/21 12:01:16;;;;;;;36.65;13.55;;;9.00;89.70;;;;;;5041387;28;20156;-70
2022/12/21 12:04:01;;;;;;;33.60;11.87;;;9.00;89.70;;;;;;5024321;28;20053;-70
2022/12/21 12:06:52;;;;;;;34.30;10.60;;;9.20;89.40;;;;;;5011783;28;20056;-70
2022/12/21 12:09:38;;;;;;;39.22;14.45;;;9.20;89.30;;;;;;5024007;28;20056;-69
2022/12/21 12:12:14;;;;;;;39.38;13.60;;;9.20;89.00;;;;;;5047592;28;20077;-70
2022/12/21 12:15:00;;;;;;;33.88;12.60;;;9.20;89.00;;;;;;5029196;28;20101;-70
2022/12/21 12:17:42;;;;;;;39.40;13.30;;;9.20;88.70;;;;;;5028660;28;20057;-70
2022/12/21 12:20:28;;;;;;;34.20;12.68;;;9.40;88.20;;;;;;5046670;28;20057;-70
2022/12/21 12:23:03;;;;;;;34.50;13.07;;;9.40;87.10;;;;;;5027986;28;20145;-70
2022/12/21 12:25:40;;;;;;;32.88;11.35;;;9.40;86.80;;;;;;5028316;28;20049;-70
2022/12/21 12:28:32;;;;;;;30.73;10.60;;;9.40;86.50;;;;;;5049391;28;20104;-70
2022/12/21 12:31:12;;;;;;;29.67;10.87;;;9.40;86.10;;;;;;5049569;28;20108;-70
2022/12/21 12:34:04;;;;;;;31.75;12.63;;;9.50;85.50;;;;;;5029297;28;20054;-69
2022/12/21 12:36:50;;;;;;;33.63;11.73;;;9.50;85.20;;;;;;5041395;28;20451;-71
2022/12/21 12:39:24;;;;;;;33.97;11.50;;;9.50;84.90;;;;;;5042935;28;20060;-71
2022/12/21 12:42:01;;;;;;;34.63;12.30;;;9.50;85.00;;;;;;5043389;28;20087;-70
2022/12/21 12:44:39;;;;;;;40.17;13.13;;;9.50;85.20;;;;;;5027590;28;20095;-71
2022/12/21 12:47:14;;;;;;;37.20;14.32;;;9.40;85.30;;;;;;5022292;28;20061;-70
2022/12/21 12:49:55;;;;;;;36.85;13.25;;;9.40;85.20;;;;;;5020243;28;20181;-71
2022/12/21 12:52:42;;;;;;;35.42;12.45;;;9.50;85.00;;;;;;5020481;28;20765;-70
2022/12/21 12:55:18;;;;;;;32.60;13.10;;;9.50;84.70;;;;;;5011155;28;20467;-70
2022/12/21 12:57:53;;;;;;;31.87;11.60;;;9.40;84.60;;;;;;5043867;28;20045;-71
2022/12/21 13:00:22;;;;;;;32.63;12.80;;;9.40;84.80;;;;;;5012266;28;20112;-70
2022/12/21 13:03:00;;;;;;;32.95;13.40;;;9.40;85.00;;;;;;5025333;28;20069;-70
2022/12/21 13:05:41;;;;;;;32.55;11.20;;;9.40;84.90;;;;;;5043987;28;20168;-71
2022/12/21 13:08:22;;;;;;;29.25;11.75;;;9.40;85.00;;;;;;5043080;28;20133;-71
2022/12/21 13:10:54;;;;;;;32.37;11.80;;;9.40;85.20;;;;;;5026564;28;20056;-71
2022/12/21 13:13:29;;;;;;;27.38;12.00;;;9.30;85.30;;;;;;5043332;28;20199;-70
2022/12/21 13:16:02;;;;;;;32.03;13.25;;;9.30;85.40;;;;;;5027304;28;20512;-70
2022/12/21 13:18:32;;;;;;;33.25;12.15;;;9.30;85.40;;;;;;5040248;28;20064;-70